createdAt,value
2022-12-27T00:04:16.800Z,1.65
2022-12-27T00:09:18.449Z,1.23
2022-12-27T00:14:19.999Z,1.45
2022-12-27T00:19:21.702Z,1.42
2022-12-27T00:24:23.367Z,1.42
2022-12-27T00:29:24.892Z,1.90
2022-12-27T00:34:26.633Z,1.85
2022-12-27T00:39:28.338Z,1.48
2022-12-27T00:44:29.946Z,1.70
2022-12-27T00:49:31.604Z,1.65
2022-12-27T00:54:33.263Z,2.15
2022-12-27T00:59:34.958Z,1.80
2022-12-27T01:04:36.628Z,1.58
2022-12-27T01:09:38.282Z,1.73
2022-12-27T01:14:39.926Z,2.80
2022-12-27T01:19:41.557Z,2.47
2022-12-27T01:24:43.228Z,2.00
2022-12-27T01:29:45.001Z,2.15
2022-12-27T01:34:46.807Z,2.08
2022-12-27T01:39:48.481Z,2.60
2022-12-27T01:44:55.138Z,2.17
2022-12-27T01:55:23.080Z,2.40
2022-12-27T02:00:24.800Z,2.78
2022-12-27T02:05:27.024Z,1.98
2022-12-27T02:10:29.263Z,1.55
2022-12-27T02:15:31.140Z,2.55
2022-12-27T02:20:48.679Z,1.83
2022-12-27T02:26:19.050Z,2.85
2022-12-27T02:31:35.179Z,1.88
2022-12-27T02:36:40.056Z,3.73
2022-12-27T02:41:43.061Z,2.45
2022-12-27T02:46:47.105Z,2.05
2022-12-27T02:52:09.450Z,2.28
2022-12-27T02:57:49.527Z,2.08
2022-12-27T03:03:07.924Z,2.15
2022-12-27T03:08:24.398Z,2.10
2022-12-27T03:13:41.191Z,2.63
2022-12-27T03:24:05.313Z,2.10
2022-12-27T03:29:08.986Z,1.95
2022-12-27T03:34:18.417Z,2.03
2022-12-27T03:39:30.813Z,2.25
2022-12-27T03:44:32.914Z,1.20
2022-12-27T03:49:41.405Z,2.20
2022-12-27T03:54:45.636Z,2.65
2022-12-27T03:59:47.675Z,1.38
2022-12-27T04:04:50.180Z,1.63
2022-12-27T04:09:51.745Z,2.05
2022-12-27T04:14:53.484Z,1.60
2022-12-27T04:19:55.073Z,1.70
2022-12-27T04:24:56.826Z,1.38
2022-12-27T04:29:58.854Z,1.42
2022-12-27T04:35:00.800Z,1.40
2022-12-27T04:40:02.376Z,1.77
2022-12-27T04:45:04.480Z,1.67
2022-12-27T04:50:24.081Z,1.95
2022-12-27T04:55:27.900Z,1.88
2022-12-27T05:00:31.157Z,1.98
2022-12-27T05:05:35.178Z,2.22
2022-12-27T05:10:36.970Z,1.98
2022-12-27T05:15:38.613Z,2.40
2022-12-27T05:20:40.456Z,1.98
2022-12-27T05:25:44.319Z,1.92
2022-12-27T05:30:47.776Z,1.95
2022-12-27T05:35:49.488Z,2.00
2022-12-27T05:40:51.184Z,2.08
2022-12-27T05:45:53.340Z,2.53
2022-12-27T05:50:54.899Z,1.77
2022-12-27T05:55:59.520Z,2.22
2022-12-27T06:01:01.889Z,2.10
2022-12-27T06:06:06.263Z,2.05
2022-12-27T06:11:12.514Z,2.10
2022-12-27T06:16:14.733Z,1.95
2022-12-27T06:21:19.416Z,2.30
2022-12-27T06:26:24.651Z,1.63
2022-12-27T06:31:27.502Z,1.60
2022-12-27T06:36:29.616Z,1.92
2022-12-27T06:41:31.194Z,1.40
2022-12-27T06:46:32.769Z,1.65
2022-12-27T06:51:34.561Z,1.80
2022-12-27T06:56:36.436Z,2.33
2022-12-27T07:01:38.246Z,1.85
2022-12-27T07:06:40.683Z,2.30
2022-12-27T07:11:42.336Z,2.40
2022-12-27T07:16:44.019Z,2.00
2022-12-27T07:21:45.611Z,2.20
2022-12-27T07:26:47.265Z,2.78
2022-12-27T07:31:48.901Z,2.90
2022-12-27T07:36:50.861Z,2.55
2022-12-27T07:41:52.589Z,2.60
2022-12-27T07:46:54.109Z,2.08
2022-12-27T07:51:55.849Z,2.63
2022-12-27T07:56:57.486Z,2.70
2022-12-27T08:02:00.415Z,3.20
2022-12-27T08:07:08.921Z,2.45
2022-12-27T08:12:11.244Z,3.17
2022-12-27T08:17:22.129Z,2.88
2022-12-27T08:22:24.035Z,2.53
2022-12-27T08:27:25.665Z,2.90
2022-12-27T08:32:27.251Z,3.05
2022-12-27T08:37:29.043Z,3.42
2022-12-27T08:42:30.762Z,2.65
2022-12-27T08:47:32.367Z,2.92
2022-12-27T08:52:34.403Z,2.47
2022-12-27T08:57:36.030Z,2.55
2022-12-27T09:02:37.651Z,2.78
2022-12-27T09:07:39.259Z,2.05
2022-12-27T09:12:41.061Z,2.35
2022-12-27T09:17:42.665Z,2.35
2022-12-27T09:22:44.229Z,1.55
2022-12-27T09:27:45.763Z,1.90
2022-12-27T09:32:47.377Z,1.20
2022-12-27T09:37:48.924Z,1.42
2022-12-27T09:43:18.128Z,1.27
2022-12-27T09:48:33.230Z,1.88
2022-12-27T09:53:38.147Z,2.00
2022-12-27T09:58:52.944Z,2.35
2022-12-27T10:03:54.579Z,1.38
2022-12-27T10:09:16.305Z,1.27
2022-12-27T10:14:53.306Z,1.58
2022-12-27T10:20:24.110Z,1.77
2022-12-27T10:25:26.248Z,1.25
2022-12-27T10:30:30.736Z,0.75
2022-12-27T10:35:32.277Z,1.70
2022-12-27T10:40:57.487Z,1.70
2022-12-27T10:46:12.643Z,2.03
2022-12-27T10:51:14.470Z,1.40
2022-12-27T10:56:27.517Z,1.75
2022-12-27T11:01:30.471Z,1.60
2022-12-27T11:06:32.135Z,2.47
2022-12-27T11:11:33.682Z,1.67
2022-12-27T11:16:36.065Z,1.20
2022-12-27T11:21:39.420Z,1.38
2022-12-27T11:26:53.945Z,1.10
2022-12-27T11:31:56.837Z,1.10
2022-12-27T11:37:17.606Z,1.42
2022-12-27T11:42:19.151Z,1.77
2022-12-27T11:47:28.218Z,1.38
2022-12-27T11:52:48.723Z,1.30
2022-12-27T11:58:10.501Z,0.73
2022-12-27T12:03:36.921Z,1.23
2022-12-27T12:08:44.357Z,0.90
2022-12-27T12:14:01.113Z,0.80
2022-12-27T12:19:17.593Z,0.80
2022-12-27T12:24:42.767Z,1.50
2022-12-27T12:30:11.705Z,0.77
2022-12-27T12:35:31.328Z,1.25
2022-12-27T12:41:03.729Z,1.65
2022-12-27T12:46:11.362Z,1.65
2022-12-27T12:51:34.419Z,1.20
2022-12-27T12:56:54.646Z,1.70
2022-12-27T13:02:17.620Z,1.20
2022-12-27T13:08:10.886Z,5.45
2022-12-27T13:13:34.087Z,1.08
2022-12-27T13:18:53.958Z,1.10
2022-12-27T13:24:29.609Z,2.38
2022-12-27T13:29:52.864Z,1.52
2022-12-27T13:35:43.895Z,1.23
2022-12-27T13:40:57.449Z,0.88
2022-12-27T13:46:14.243Z,1.55
2022-12-27T13:51:41.653Z,0.90
2022-12-27T13:57:00.672Z,0.93
2022-12-27T14:02:30.175Z,1.38
2022-12-27T14:07:47.129Z,1.55
2022-12-27T14:12:58.335Z,0.80
2022-12-27T14:18:36.976Z,1.10
2022-12-27T14:24:12.653Z,1.17
2022-12-27T14:29:17.181Z,1.55
2022-12-27T14:34:43.198Z,1.08
2022-12-27T14:40:29.884Z,1.25
2022-12-27T14:45:37.212Z,1.55
2022-12-27T14:51:00.274Z,1.42
2022-12-27T14:56:19.502Z,1.55
2022-12-27T15:01:27.641Z,1.23
2022-12-27T15:06:38.056Z,1.55
2022-12-27T15:11:57.905Z,1.40
2022-12-27T15:17:23.001Z,1.63
2022-12-27T15:22:39.484Z,1.40
2022-12-27T15:27:55.670Z,3.00
2022-12-27T15:33:15.701Z,1.13
2022-12-27T15:38:37.973Z,1.15
2022-12-27T15:44:04.453Z,2.20
2022-12-27T15:49:36.705Z,1.27
2022-12-27T15:54:58.078Z,1.20
2022-12-27T16:00:17.888Z,3.10
2022-12-27T16:05:19.416Z,1.40
2022-12-27T16:10:30.160Z,3.25
2022-12-27T16:15:55.452Z,2.60
2022-12-27T16:21:19.349Z,1.88
2022-12-27T16:26:31.689Z,2.47
2022-12-27T16:31:45.145Z,2.05
2022-12-27T16:36:49.548Z,3.03
2022-12-27T16:41:56.931Z,3.10
2022-12-27T16:47:04.621Z,3.63
2022-12-27T16:52:43.726Z,7.05
2022-12-27T16:57:48.377Z,3.10
2022-12-27T17:02:50.100Z,1.88
2022-12-27T17:07:54.593Z,1.90
2022-12-27T17:13:31.006Z,2.88
2022-12-27T17:18:37.952Z,2.03
2022-12-27T17:23:46.476Z,2.78
2022-12-27T17:29:29.909Z,4.35
2022-12-27T17:34:50.005Z,6.75
2022-12-27T17:40:07.077Z,2.83
2022-12-27T17:50:16.118Z,2.58
2022-12-27T17:55:22.030Z,2.22
2022-12-27T18:00:26.411Z,2.33
2022-12-27T18:05:31.656Z,2.95
2022-12-27T18:10:35.349Z,2.55
2022-12-27T18:15:43.922Z,2.95
2022-12-27T18:20:45.466Z,2.08
2022-12-27T18:25:47.028Z,2.70
2022-12-27T18:30:57.400Z,2.60
2022-12-27T18:36:02.383Z,2.67
2022-12-27T18:41:11.225Z,3.13
2022-12-27T18:46:36.404Z,2.70
2022-12-27T18:51:39.141Z,2.40
2022-12-27T18:56:42.514Z,2.70
2022-12-27T19:01:46.479Z,3.67
2022-12-27T19:06:54.233Z,3.17
2022-12-27T19:12:01.029Z,2.75
2022-12-27T19:22:48.362Z,2.45
2022-12-27T19:33:32.352Z,2.58
2022-12-27T19:38:34.465Z,2.97
2022-12-27T19:43:45.341Z,2.80
2022-12-27T19:49:07.768Z,2.85
2022-12-27T19:54:18.022Z,3.20
2022-12-27T19:59:21.811Z,3.45
2022-12-27T20:04:27.097Z,3.58
2022-12-27T20:09:29.051Z,2.90
2022-12-27T20:14:30.702Z,3.60
2022-12-27T20:19:32.553Z,4.40
2022-12-27T20:24:34.229Z,4.18
2022-12-27T20:29:35.927Z,4.32
2022-12-27T20:34:37.449Z,4.60
2022-12-27T20:39:39.033Z,4.22
2022-12-27T20:44:40.595Z,5.45
2022-12-27T20:49:42.144Z,4.88
2022-12-27T20:54:43.671Z,4.80
2022-12-27T20:59:45.196Z,5.25
2022-12-27T21:04:46.785Z,6.40
2022-12-27T21:09:48.331Z,6.18
2022-12-27T21:14:49.858Z,6.28
2022-12-27T21:19:51.529Z,6.78
2022-12-27T21:24:53.249Z,5.15
2022-12-27T21:29:54.868Z,7.35
2022-12-27T21:34:56.579Z,6.10
2022-12-27T21:39:58.102Z,5.53
2022-12-27T21:44:59.709Z,4.63
2022-12-27T21:50:01.352Z,3.60
2022-12-27T21:55:03.073Z,4.05
2022-12-27T22:00:05.292Z,3.63
2022-12-27T22:05:07.617Z,3.15
2022-12-27T22:10:09.869Z,3.35
2022-12-27T22:15:11.668Z,3.17
2022-12-27T22:20:13.311Z,3.42
2022-12-27T22:25:14.963Z,3.70
2022-12-27T22:30:16.557Z,3.80
2022-12-27T22:35:18.234Z,3.30
2022-12-27T22:40:37.882Z,2.80
2022-12-27T22:45:41.828Z,2.38
2022-12-27T22:50:43.468Z,2.83
2022-12-27T22:55:45.072Z,2.47
2022-12-27T23:00:46.793Z,2.30
2022-12-27T23:06:00.707Z,2.67
2022-12-27T23:11:12.068Z,2.55
2022-12-27T23:16:14.004Z,2.35
2022-12-27T23:21:21.456Z,2.70
2022-12-27T23:26:25.714Z,2.88
2022-12-27T23:31:28.047Z,2.45
2022-12-27T23:36:33.009Z,3.10
2022-12-27T23:41:34.598Z,1.90
2022-12-27T23:46:36.325Z,2.97
2022-12-27T23:51:37.953Z,2.30
2022-12-27T23:56:39.583Z,2.10
